Flugplatz Wittmundhafen Airport

Bericht für ETNT

vom 26.06. um 22:20 UTC

Wind 8 kt aus 330°

Sichtweite 10 km oder mehr

aufgebrochene Bewölkung in 1300 ft

Temperatur 14.0°C

Taupunkt 10.0°C

Luftfeuchtigkeit 77%

Luftdruck 1028 hPa

ETNT 262220Z 33008KT 9999 BKN013 14/10 Q1028 GRN

Prognose für ETNT

vom 26.06. um 00:00 UTC

Am 26.06. zwischen 00:00 UTC und 00:00 UTC zeitweise

Wind 12 kt aus 340° in Böen 22 kt

Sichtweite 8000 m

keine signifikanten Wettererscheinungen

aufgebrochene Bewölkung in 1200 ft


Am 26.06. zwischen 00:00 UTC und 00:00 UTC

Wind 12 kt aus 340°

Sichtweite 10 km oder mehr

keine signifikanten Wettererscheinungen

aufgebrochene Bewölkung in 2000 ft

TAF ETNT 262200Z 2623/2708 34012KT 9999 NSW BKN020 TEMPO 2623/2704 34012G22KT 8000 NSW BKN012 BY ETGL
Impressum